Richford, Wisconsin
Current Conditions -  °F | °C
As of 4:26 AM on Thursday 18 Dec 2014 (Local Time) from KY50 Reporting Station
Overcast Overcast  
Wind Chill: 17°   Ceiling: 1400
Heat Index: 23°   Visibility: 10mi
Dew Point: 19°   Wind: 5mph
Humidity: 86%   Direction: 300°WNW
Pressure: 30.27"   Gusts: NA
Location:  44.0358°N, 89.5222°W
Report Text: KY50 181026Z AUTO 30004KT 10SM OVC014 M05/M07 A3027 RMK AO2 TSNO
Loading
Personal Weather Stations






























Interactive Weather Map New forecast layout! Learn more

10-Day Weather Forecast

Advertisements
Track Severe Weather on mobile